Time;durP1;ratioP1;P1;durP2;ratioP2;P2;SDS_P1;SDS_P2;PMS_P1;PMS_P2;Temp;Humidity;BMP_temperature;BMP_pressure;BME280_temperature;BME280_humidity;BME280_pressure;Samples;Min_cycle;Max_cycle;Signal;HPM_P1;HPM_P2
2021/08/20 00:01:41;;;;;;;8.80;7.90;;;;;;;16.39;74.56;100364.55;92893;1209;80521;-61
2021/08/20 00:03:49;;;;;;;9.10;8.20;;;;;;;16.33;74.70;100365.27;92874;1208;98865;-61
2021/08/20 00:05:57;;;;;;;10.80;8.30;;;;;;;16.28;74.76;100364.14;92882;1209;87155;-65
2021/08/20 00:08:06;;;;;;;9.30;7.60;;;;;;;16.24;74.85;100368.27;92875;1208;92807;-65
2021/08/20 00:10:16;;;;;;;8.90;8.00;;;;;;;16.21;74.96;100370.69;92866;1206;79871;-65
2021/08/20 00:12:23;;;;;;;14.00;8.80;;;;;;;16.15;75.13;100375.12;92926;1209;81845;-65
2021/08/20 00:14:31;;;;;;;10.60;8.20;;;;;;;16.12;75.22;100375.36;92855;1209;99214;-66
2021/08/20 00:16:39;;;;;;;9.30;8.30;;;;;;;16.06;75.30;100375.42;92886;1209;87753;-65
2021/08/20 00:18:46;;;;;;;9.90;8.80;;;;;;;16.00;75.42;100378.17;92842;1214;93716;-65
2021/08/20 00:20:54;;;;;;;8.90;8.00;;;;;;;15.93;75.48;100380.12;92848;1206;80744;-61
2021/08/20 00:23:01;;;;;;;9.60;8.20;;;;;;;15.89;75.54;100384.61;92884;1200;82169;-60
2021/08/20 00:25:14;;;;;;;9.20;8.40;;;;;;;15.85;75.53;100380.23;92885;1208;98936;-60
2021/08/20 00:27:22;;;;;;;11.00;7.90;;;;;;;15.82;75.65;100382.20;92865;1209;87538;-60
2021/08/20 00:29:30;;;;;;;9.40;8.50;;;;;;;15.76;75.75;100380.78;92860;1209;94079;-60
2021/08/20 00:31:38;;;;;;;10.60;9.00;;;;;;;15.73;75.77;100382.02;92887;1209;79302;-65
2021/08/20 00:33:45;;;;;;;10.60;8.60;;;;;;;15.69;75.88;100379.00;92885;1209;81612;-65
2021/08/20 00:35:53;;;;;;;9.80;8.80;;;;;;;15.65;75.97;100379.58;92866;1209;98894;-60
2021/08/20 00:38:00;;;;;;;9.50;8.50;;;;;;;15.62;76.01;100379.36;92846;1209;87565;-60
2021/08/20 00:40:12;;;;;;;9.70;8.70;;;;;;;15.57;76.03;100378.77;92850;1209;93648;-61
2021/08/20 00:42:19;;;;;;;9.70;8.70;;;;;;;15.53;76.17;100379.40;92863;1209;80581;-60
2021/08/20 00:44:27;;;;;;;9.40;8.50;;;;;;;15.46;76.27;100379.60;92844;1201;80548;-60
2021/08/20 00:46:35;;;;;;;10.30;8.60;;;;;;;15.42;76.44;100379.66;92842;1208;99411;-60
2021/08/20 00:48:45;;;;;;;10.60;9.20;;;;;;;15.40;76.54;100376.83;92820;1208;86354;-60
2021/08/20 00:51:01;;;;;;;10.20;9.20;;;;;;;15.41;76.51;100377.77;92854;1209;93469;-60
2021/08/20 00:53:09;;;;;;;10.00;9.10;;;;;;;15.38;76.69;100378.02;92831;1209;79943;-60
2021/08/20 00:55:19;;;;;;;12.20;9.60;;;;;;;15.37;76.69;100374.59;92841;1209;80924;-60
2021/08/20 00:57:27;;;;;;;9.80;8.70;;;;;;;15.35;76.67;100375.89;92814;1209;99150;-60
2021/08/20 00:59:35;;;;;;;11.20;9.20;;;;;;;15.33;76.77;100374.36;92816;1209;86163;-60
2021/08/20 01:01:47;;;;;;;10.80;9.30;;;;;;;15.33;76.79;100379.64;92818;1209;94677;-60
2021/08/20 01:03:55;;;;;;;12.20;9.80;;;;;;;15.32;76.97;100379.44;92802;1208;79080;-60
2021/08/20 01:06:04;;;;;;;12.50;9.30;;;;;;;15.30;76.99;100379.20;92826;1209;80976;-65
2021/08/20 01:08:12;;;;;;;9.80;8.80;;;;;;;15.29;77.06;100384.77;92820;1209;99653;-65
2021/08/20 01:10:20;;;;;;;9.10;8.10;;;;;;;15.25;77.04;100385.60;92844;1209;86471;-65
2021/08/20 01:12:27;;;;;;;10.60;8.30;;;;;;;15.24;77.08;100388.46;92817;1208;94090;-65
2021/08/20 01:14:37;;;;;;;9.80;8.70;;;;;;;15.19;77.10;100386.56;92836;1209;78732;-65
2021/08/20 01:16:44;;;;;;;10.80;9.70;;;;;;;15.16;77.10;100389.42;92874;1202;80006;-60
2021/08/20 01:18:52;;;;;;;10.70;9.60;;;;;;;15.16;77.16;100391.81;92838;1209;99041;-60
2021/08/20 01:21:03;;;;;;;10.40;9.20;;;;;;;15.13;77.27;100392.25;92829;1209;88189;-60
2021/08/20 01:23:10;;;;;;;10.50;9.20;;;;;;;15.14;77.29;100393.01;92821;1209;93151;-60
2021/08/20 01:25:17;;;;;;;9.50;8.50;;;;;;;15.13;77.30;100394.56;92803;1209;82176;-60
2021/08/20 01:27:25;;;;;;;11.30;10.00;;;;;;;15.10;77.37;100395.55;92850;1209;82470;-60
2021/08/20 01:29:34;;;;;;;10.40;9.30;;;;;;;15.06;77.39;100395.02;92833;1209;98854;-60
2021/08/20 01:31:45;;;;;;;10.30;9.30;;;;;;;15.04;77.43;100402.27;92878;1209;87668;-65
2021/08/20 01:33:55;;;;;;;10.80;9.50;;;;;;;14.98;77.47;100399.55;92789;1209;94272;-65
2021/08/20 01:36:03;;;;;;;10.30;9.20;;;;;;;14.97;77.40;100403.49;92807;1209;80589;-65
2021/08/20 01:38:14;;;;;;;9.70;8.70;;;;;;;14.96;77.50;100402.83;92826;1201;80121;-65
2021/08/20 01:40:22;;;;;;;11.20;9.10;;;;;;;14.94;77.56;100402.53;92833;1209;98867;-60
2021/08/20 01:42:29;;;;;;;10.70;9.60;;;;;;;14.90;77.68;100402.60;92917;1209;88446;-60
2021/08/20 01:44:41;;;;;;;12.90;9.20;;;;;;;14.89;77.69;100398.92;92877;1209;94011;-61
2021/08/20 01:46:52;;;;;;;10.40;9.40;;;;;;;14.90;77.76;100402.44;92919;1209;81237;-65
2021/08/20 01:49:03;;;;;;;10.40;9.40;;;;;;;14.88;77.80;100398.52;92933;1209;80857;-65
2021/08/20 01:51:12;;;;;;;9.50;8.50;;;;;;;14.85;77.79;100390.65;92933;1209;99449;-61
2021/08/20 01:53:20;;;;;;;9.90;8.80;;;;;;;14.84;77.93;100390.84;92950;1209;88180;-60
2021/08/20 01:55:28;;;;;;;9.80;8.90;;;;;;;14.84;77.98;100393.77;92928;1209;94003;-65
2021/08/20 01:57:36;;;;;;;9.70;8.70;;;;;;;14.83;78.00;100389.77;92880;1208;79707;-65
2021/08/20 01:59:44;;;;;;;10.30;9.00;;;;;;;14.79;78.03;100389.30;92915;1209;81630;-64
2021/08/20 02:01:54;;;;;;;8.80;8.00;;;;;;;14.80;78.12;100390.27;92929;1209;100049;-65
2021/08/20 02:04:02;;;;;;;9.30;8.40;;;;;;;14.80;78.11;100391.98;92896;1209;88380;-65
2021/08/20 02:06:10;;;;;;;10.60;8.90;;;;;;;14.82;78.27;100391.72;92907;1209;94580;-61
2021/08/20 02:08:17;;;;;;;9.20;8.20;;;;;;;14.81;78.26;100393.05;92899;1208;78106;-61
2021/08/20 02:10:25;;;;;;;9.60;8.70;;;;;;;14.83;78.52;100393.68;92920;1199;80741;-61
2021/08/20 02:12:33;;;;;;;11.40;9.90;;;;;;;14.84;78.53;100391.63;92938;1209;98035;-61
2021/08/20 02:14:40;;;;;;;9.50;8.60;;;;;;;14.87;78.45;100390.06;92921;1209;86691;-62
2021/08/20 02:16:48;;;;;;;9.70;8.70;;;;;;;14.87;78.48;100382.57;92916;1209;93189;-61
2021/08/20 02:18:55;;;;;;;10.30;9.30;;;;;;;14.86;78.48;100382.33;92924;1208;78540;-61
2021/08/20 02:21:04;;;;;;;10.70;9.50;;;;;;;14.87;78.50;100376.63;92940;1209;81189;-61
2021/08/20 02:23:13;;;;;;;11.20;9.70;;;;;;;14.86;78.51;100380.03;92907;1209;99363;-61
2021/08/20 02:25:21;;;;;;;12.20;9.30;;;;;;;14.85;78.55;100382.17;92941;1209;89281;-65
2021/08/20 02:27:32;;;;;;;10.00;9.00;;;;;;;14.83;78.69;100382.48;92909;1209;93970;-66
2021/08/20 02:29:39;;;;;;;10.00;8.70;;;;;;;14.83;78.80;100385.81;92900;1208;80134;-62
2021/08/20 02:31:47;;;;;;;9.80;8.80;;;;;;;14.84;78.87;100384.14;92958;1209;81856;-61
2021/08/20 02:33:54;;;;;;;10.50;8.80;;;;;;;14.87;78.91;100386.92;92960;1209;98345;-61
2021/08/20 02:36:06;;;;;;;10.80;9.70;;;;;;;14.88;79.06;100391.27;92991;1209;86519;-60
2021/08/20 02:38:14;;;;;;;10.90;9.80;;;;;;;14.89;79.05;100391.14;92957;1209;95001;-61
2021/08/20 02:40:21;;;;;;;10.30;9.10;;;;;;;14.90;79.06;100388.13;92949;1206;80530;-66
2021/08/20 02:42:29;;;;;;;10.00;8.90;;;;;;;14.88;79.04;100388.94;92961;1207;82160;-66
2021/08/20 02:44:39;;;;;;;10.90;9.20;;;;;;;14.89;78.95;100387.80;92954;1209;97958;-63
2021/08/20 02:46:50;;;;;;;11.30;9.50;;;;;;;14.90;79.15;100386.54;92963;1209;87434;-61
2021/08/20 02:48:57;;;;;;;11.00;9.60;;;;;;;14.91;79.01;100385.81;92944;1209;94556;-61
2021/08/20 02:51:07;;;;;;;12.50;8.90;;;;;;;14.88;79.11;100387.30;92872;1208;80245;-61
2021/08/20 02:53:15;;;;;;;11.00;9.00;;;;;;;14.88;79.07;100389.90;92945;1202;81607;-61
2021/08/20 02:55:22;;;;;;;11.10;9.60;;;;;;;14.89;79.13;100394.07;93002;1209;99410;-66
2021/08/20 02:57:30;;;;;;;10.80;9.40;;;;;;;14.92;79.25;100395.48;92962;1209;88102;-65
2021/08/20 02:59:40;;;;;;;12.80;10.30;;;;;;;14.92;79.21;100399.98;92959;1209;93837;-65
2021/08/20 03:01:49;;;;;;;48.60;34.80;;;;;;;14.93;79.18;100397.45;92972;1209;78186;-61
2021/08/20 03:03:56;;;;;;;78.90;63.70;;;;;;;14.92;79.25;100397.95;92974;1209;82270;-61
2021/08/20 03:06:04;;;;;;;18.60;16.60;;;;;;;14.93;79.31;100400.29;92972;1209;97896;-61
2021/08/20 03:08:12;;;;;;;12.40;10.90;;;;;;;14.92;79.32;100396.02;92962;1209;86748;-61
2021/08/20 03:10:19;;;;;;;11.40;10.20;;;;;;;14.93;79.32;100393.79;92944;1209;94607;-61
2021/08/20 03:12:27;;;;;;;10.40;9.40;;;;;;;14.94;79.36;100393.66;92957;1209;79660;-61
2021/08/20 03:14:35;;;;;;;13.50;9.90;;;;;;;14.92;79.33;100395.05;92969;1209;82281;-61
2021/08/20 03:16:43;;;;;;;10.50;9.50;;;;;;;14.97;79.38;100392.61;92958;1206;100586;-61
2021/08/20 03:18:51;;;;;;;10.60;9.50;;;;;;;15.02;79.41;100393.12;92919;1209;88117;-61
2021/08/20 03:20:58;;;;;;;11.30;10.20;;;;;;;15.04;79.51;100385.41;92936;1206;94700;-65
2021/08/20 03:23:07;;;;;;;11.60;10.20;;;;;;;15.08;79.49;100389.90;92954;1209;79023;-65
2021/08/20 03:25:17;;;;;;;14.60;9.90;;;;;;;15.14;79.55;100393.00;92988;1209;79876;-61
2021/08/20 03:27:25;;;;;;;12.50;11.10;;;;;;;15.21;79.56;100394.88;92922;1209;100043;-61
2021/08/20 03:29:35;;;;;;;13.10;10.70;;;;;;;15.26;79.52;100395.11;92938;1209;88259;-61
2021/08/20 03:31:43;;;;;;;11.00;9.10;;;;;;;15.28;79.45;100392.23;92932;1209;94219;-61
2021/08/20 03:33:51;;;;;;;12.10;10.80;;;;;;;15.30;79.50;100391.55;92942;1209;79673;-61
2021/08/20 03:35:58;;;;;;;11.10;10.00;;;;;;;15.31;79.41;100389.20;92945;1209;80617;-66
2021/08/20 03:38:06;;;;;;;10.80;9.70;;;;;;;15.33;79.41;100391.61;92955;1209;98994;-65
2021/08/20 03:40:14;;;;;;;11.30;10.00;;;;;;;15.35;79.46;100395.04;92956;1206;86792;-65
2021/08/20 03:42:21;;;;;;;13.00;10.40;;;;;;;15.37;79.40;100395.31;92866;1209;93928;-66
2021/08/20 03:44:29;;;;;;;11.60;10.40;;;;;;;15.37;79.35;100397.45;92931;1209;80552;-66
2021/08/20 03:46:36;;;;;;;11.80;9.50;;;;;;;15.40;79.30;100397.81;92826;1209;82657;-65
2021/08/20 03:48:44;;;;;;;11.90;10.80;;;;;;;15.43;79.27;100396.45;92954;1209;98911;-65
2021/08/20 03:50:52;;;;;;;11.90;10.70;;;;;;;15.48;79.18;100397.74;92955;1207;87839;-60
2021/08/20 03:52:59;;;;;;;12.10;10.90;;;;;;;15.51;79.10;100396.75;92892;1207;92723;-61
2021/08/20 03:55:10;;;;;;;12.40;10.00;;;;;;;15.52;79.10;100395.82;92856;1209;80554;-65
2021/08/20 03:57:17;;;;;;;11.30;10.20;;;;;;;15.53;78.96;100394.72;92938;1206;80970;-65
2021/08/20 03:59:28;;;;;;;11.50;10.30;;;;;;;15.54;78.92;100391.80;92930;1209;100275;-66
2021/08/20 04:01:35;;;;;;;11.40;10.30;;;;;;;15.53;79.01;100389.20;92938;1209;88052;-60
2021/08/20 04:03:43;;;;;;;11.00;10.00;;;;;;;15.50;78.97;100393.23;92909;1207;93259;-61
2021/08/20 04:05:51;;;;;;;11.90;10.50;;;;;;;15.53;78.93;100395.93;92933;1206;80011;-61
2021/08/20 04:07:58;;;;;;;11.40;10.20;;;;;;;15.47;78.92;100394.89;92938;1206;81851;-61
2021/08/20 04:10:07;;;;;;;11.70;10.30;;;;;;;15.49;78.90;100397.52;92930;1209;98016;-65
2021/08/20 04:12:18;;;;;;;11.60;10.40;;;;;;;15.54;78.91;100400.75;92947;1209;88325;-66
2021/08/20 04:14:26;;;;;;;12.30;10.70;;;;;;;15.52;78.94;100400.93;92920;1208;94575;-66
2021/08/20 04:16:36;;;;;;;11.00;9.80;;;;;;;15.49;79.03;100405.27;92927;1209;79476;-66
2021/08/20 04:18:44;;;;;;;12.50;10.60;;;;;;;15.47;79.04;100404.07;92942;1209;81341;-66
2021/08/20 04:20:51;;;;;;;12.20;10.50;;;;;;;15.49;78.99;100404.86;92899;1209;98567;-66
2021/08/20 04:23:00;;;;;;;11.10;10.00;;;;;;;15.51;79.05;100408.42;92929;1209;87563;-66
2021/08/20 04:25:09;;;;;;;11.80;10.50;;;;;;;15.55;79.09;100410.45;92943;1209;94618;-65
2021/08/20 04:27:18;;;;;;;13.10;11.30;;;;;;;15.64;79.07;100409.09;92972;1206;78026;-65
2021/08/20 04:29:26;;;;;;;12.00;10.60;;;;;;;15.71;79.26;100402.87;92963;1215;82187;-65
2021/08/20 04:31:33;;;;;;;12.80;10.10;;;;;;;15.79;79.15;100405.82;92992;1209;98330;-66
2021/08/20 04:33:41;;;;;;;11.80;10.20;;;;;;;15.91;79.15;100405.91;92942;1209;86419;-65
2021/08/20 04:35:49;;;;;;;10.70;9.50;;;;;;;15.98;79.20;100403.80;92959;1209;93930;-61
2021/08/20 04:37:57;;;;;;;11.70;10.30;;;;;;;16.09;79.03;100405.36;92898;1208;78900;-61
2021/08/20 04:40:07;;;;;;;13.10;10.80;;;;;;;16.40;79.47;100400.47;92968;1209;81604;-65
2021/08/20 04:42:15;;;;;;;9.80;8.90;;;;;;;17.42;79.66;100399.40;92951;1209;99970;-66
2021/08/20 04:44:22;;;;;;;12.40;9.70;;;;;;;18.23;78.19;100400.67;92968;1209;85256;-65
2021/08/20 04:46:30;;;;;;;11.70;9.90;;;;;;;18.50;77.29;100397.47;92952;1206;94612;-60
2021/08/20 04:48:37;;;;;;;10.40;9.40;;;;;;;19.33;77.13;100399.02;92946;1209;79348;-61
2021/08/20 04:50:45;;;;;;;11.30;8.80;;;;;;;20.25;75.76;100394.55;92960;1199;81351;-61
2021/08/20 04:52:52;;;;;;;10.10;9.10;;;;;;;21.17;74.39;100399.25;92935;1208;99062;-61
2021/08/20 04:55:01;;;;;;;9.30;8.00;;;;;;;21.82;72.67;100401.27;92953;1209;88313;-65
2021/08/20 04:57:09;;;;;;;13.60;8.90;;;;;;;22.54;71.39;100393.00;92941;1208;93363;-66
2021/08/20 04:59:17;;;;;;;8.80;7.80;;;;;;;23.15;69.56;100394.20;92950;1209;80771;-65
2021/08/20 05:01:25;;;;;;;8.00;7.30;;;;;;;23.50;67.95;100392.57;92965;1209;81157;-61
2021/08/20 05:03:33;;;;;;;8.90;7.40;;;;;;;24.01;66.97;100387.79;92934;1209;99426;-61
2021/08/20 05:05:42;;;;;;;9.90;8.10;;;;;;;24.59;65.58;100391.31;92941;1209;87896;-66
2021/08/20 05:07:49;;;;;;;9.40;7.30;;;;;;;25.18;64.16;100391.77;92899;1209;94501;-66
2021/08/20 05:09:58;;;;;;;8.10;7.30;;;;;;;25.68;63.05;100393.23;92944;1209;78390;-65
2021/08/20 05:12:09;;;;;;;8.40;7.50;;;;;;;26.21;61.60;100394.04;92955;1209;81549;-65
2021/08/20 05:14:17;;;;;;;8.50;7.60;;;;;;;26.39;60.50;100393.95;92894;1209;99300;-66
2021/08/20 05:16:24;;;;;;;9.00;7.80;;;;;;;26.04;59.66;100395.35;92941;1209;87685;-65
2021/08/20 05:18:32;;;;;;;8.50;7.40;;;;;;;25.29;59.41;100392.43;92919;1209;95495;-66
2021/08/20 05:20:39;;;;;;;8.10;7.30;;;;;;;24.37;59.66;100392.46;92946;1208;77794;-66
2021/08/20 05:22:53;;;;;;;9.00;8.10;;;;;;;23.63;60.19;100393.35;92936;1209;83221;-65
2021/08/20 05:24:59;;;;;;;;;;;;;;;23.05;60.79;100391.14;92941;1209;99370;-66
2021/08/20 05:27:07;;;;;;;10.80;7.70;;;;;;;22.65;61.34;100389.70;92950;1208;86415;-66
2021/08/20 05:29:14;;;;;;;8.90;7.60;;;;;;;22.56;61.69;100396.64;92977;1209;93991;-66
2021/08/20 05:31:22;;;;;;;9.10;8.10;;;;;;;22.38;61.97;100399.25;92971;1209;79574;-61
2021/08/20 05:33:30;;;;;;;8.80;7.60;;;;;;;22.16;62.15;100393.44;92956;1209;80938;-61
2021/08/20 05:35:38;;;;;;;10.00;8.20;;;;;;;22.05;62.56;100388.85;92944;1209;100323;-66
2021/08/20 05:37:46;;;;;;;8.60;7.70;;;;;;;22.01;62.73;100388.05;92922;1209;88305;-65
2021/08/20 05:39:54;;;;;;;8.80;8.00;;;;;;;21.88;62.85;100391.52;92940;1209;93795;-65
2021/08/20 05:42:02;;;;;;;9.60;8.10;;;;;;;21.66;63.10;100394.46;92923;1209;78875;-66
2021/08/20 05:44:10;;;;;;;10.00;8.30;;;;;;;21.45;63.35;100393.84;92894;1209;81898;-66
2021/08/20 05:46:20;;;;;;;10.10;8.30;;;;;;;21.24;63.84;100402.48;92968;1209;98715;-66
2021/08/20 05:48:28;;;;;;;9.90;8.00;;;;;;;21.02;64.25;100401.71;92894;1209;87299;-66
2021/08/20 05:50:36;;;;;;;9.90;8.90;;;;;;;20.85;64.59;100403.42;92944;1201;92747;-61
2021/08/20 05:52:47;;;;;;;10.90;8.80;;;;;;;20.72;65.13;100404.64;92954;1209;79899;-60
2021/08/20 05:54:54;;;;;;;10.90;8.90;;;;;;;20.70;65.45;100406.20;92925;1209;82466;-61
2021/08/20 05:57:02;;;;;;;11.70;8.50;;;;;;;20.71;65.69;100405.89;92968;1209;99519;-60
2021/08/20 05:59:13;;;;;;;11.40;9.20;;;;;;;20.75;66.00;100407.15;92943;1209;87189;-60
2021/08/20 06:01:20;;;;;;;11.50;9.80;;;;;;;20.76;66.19;100407.66;92956;1209;94395;-66
2021/08/20 06:03:28;;;;;;;9.80;8.60;;;;;;;20.83;66.46;100408.95;92939;1209;78510;-66
2021/08/20 06:05:36;;;;;;;15.00;8.70;;;;;;;21.00;66.45;100408.84;92955;1209;79521;-65
2021/08/20 06:07:43;;;;;;;9.90;8.90;;;;;;;21.18;66.15;100411.69;92943;1209;98885;-66
2021/08/20 06:09:51;;;;;;;10.20;9.00;;;;;;;21.27;66.27;100408.50;92977;1209;86931;-73
2021/08/20 06:11:58;;;;;;;21.50;9.30;;;;;;;21.27;65.98;100409.77;92885;1208;93304;-71
2021/08/20 06:14:06;;;;;;;10.40;9.10;;;;;;;21.28;66.10;100409.77;92987;1209;79324;-70
2021/08/20 06:16:14;;;;;;;10.30;8.90;;;;;;;21.40;66.14;100414.44;92990;1209;80756;-64
2021/08/20 06:18:21;;;;;;;11.60;9.10;;;;;;;21.55;66.12;100416.59;92943;1209;100359;-64
2021/08/20 06:20:29;;;;;;;10.10;9.10;;;;;;;21.75;66.28;100418.58;93013;1209;89319;-69
2021/08/20 06:22:37;;;;;;;18.80;10.00;;;;;;;22.05;66.19;100415.14;92964;1209;94709;-69
2021/08/20 06:24:45;;;;;;;18.20;9.20;;;;;;;22.17;65.63;100422.12;92953;1206;79215;-69
2021/08/20 06:26:53;;;;;;;10.00;8.60;;;;;;;22.29;65.49;100417.36;92999;1209;82524;-68
2021/08/20 06:29:00;;;;;;;9.40;8.00;;;;;;;22.49;65.17;100421.45;93010;1209;97836;-69
2021/08/20 06:31:08;;;;;;;11.00;7.90;;;;;;;22.56;64.82;100426.39;92970;1209;86671;-69
2021/08/20 06:33:16;;;;;;;11.60;8.40;;;;;;;22.40;64.08;100427.39;92966;1207;94012;-69
2021/08/20 06:35:23;;;;;;;21.10;9.80;;;;;;;22.13;64.48;100433.48;92896;1208;79219;-64
2021/08/20 06:37:31;;;;;;;15.80;8.90;;;;;;;22.17;64.68;100430.98;93002;1209;82350;-63
2021/08/20 06:39:39;;;;;;;22.60;9.70;;;;;;;22.12;64.66;100435.51;92954;1209;99427;-66
2021/08/20 06:41:46;;;;;;;12.10;8.20;;;;;;;21.98;64.88;100434.47;92958;1209;88078;-63
2021/08/20 06:43:54;;;;;;;10.10;8.70;;;;;;;21.81;65.10;100436.28;92974;1209;92998;-63
2021/08/20 06:46:02;;;;;;;12.80;8.20;;;;;;;21.80;65.14;100431.37;92978;1207;79922;-61
2021/08/20 06:48:10;;;;;;;9.30;8.20;;;;;;;21.74;65.10;100432.37;92991;1209;80950;-63
2021/08/20 06:50:17;;;;;;;11.80;8.60;;;;;;;21.72;65.00;100431.91;92974;1209;99864;-71
2021/08/20 06:52:25;;;;;;;8.80;7.90;;;;;;;21.68;64.97;100431.48;92999;1207;87641;-69
2021/08/20 06:54:33;;;;;;;10.50;8.10;;;;;;;21.64;65.08;100432.77;92952;1209;93219;-68
2021/08/20 06:56:41;;;;;;;9.40;7.90;;;;;;;21.40;65.22;100435.23;92995;1206;80141;-64
2021/08/20 06:58:48;;;;;;;9.90;7.20;;;;;;;21.50;65.20;100432.96;92987;1209;80874;-64
2021/08/20 07:00:56;;;;;;;10.40;7.90;;;;;;;21.56;65.31;100439.08;92995;1209;99801;-66
2021/08/20 07:03:04;;;;;;;9.90;7.40;;;;;;;21.73;65.04;100436.48;92973;1207;87743;-68
2021/08/20 07:05:15;;;;;;;11.30;7.30;;;;;;;21.81;65.26;100437.27;92944;1209;92852;-64
2021/08/20 07:07:23;;;;;;;14.80;7.30;;;;;;;21.96;65.07;100435.83;92996;1209;78684;-63
2021/08/20 07:09:30;;;;;;;9.50;7.20;;;;;;;22.09;65.24;100437.02;93001;1207;81327;-65
2021/08/20 07:11:41;;;;;;;8.80;7.50;;;;;;;22.15;65.27;100439.50;92959;1209;99058;-63
2021/08/20 07:13:49;;;;;;;9.00;6.90;;;;;;;22.19;65.11;100441.89;92974;1208;86873;-64
2021/08/20 07:15:57;;;;;;;9.10;6.90;;;;;;;22.17;65.07;100447.56;92945;1209;94011;-68
2021/08/20 07:18:04;;;;;;;7.90;6.90;;;;;;;22.19;65.20;100451.09;92966;1209;78371;-68
2021/08/20 07:20:15;;;;;;;12.10;7.30;;;;;;;22.26;65.17;100452.89;93008;1207;81511;-68
2021/08/20 07:22:22;;;;;;;13.10;7.60;;;;;;;22.16;65.22;100453.70;92984;1209;99058;-68
2021/08/20 07:24:30;;;;;;;10.90;7.50;;;;;;;22.13;65.18;100458.36;92962;1209;86962;-68
2021/08/20 07:26:38;;;;;;;9.50;7.50;;;;;;;21.99;65.11;100458.25;92950;1206;93366;-68
2021/08/20 07:28:45;;;;;;;12.90;7.60;;;;;;;22.02;65.03;100465.98;92953;1206;79893;-70
2021/08/20 07:30:53;;;;;;;7.40;6.60;;;;;;;22.01;64.89;100471.36;92983;1209;82030;-68
2021/08/20 07:33:00;;;;;;;8.00;7.30;;;;;;;21.99;64.85;100469.42;92949;1209;99660;-67
2021/08/20 07:35:09;;;;;;;8.10;7.10;;;;;;;21.93;64.96;100470.52;92878;1209;87927;-67
2021/08/20 07:37:20;;;;;;;11.70;7.60;;;;;;;21.89;65.14;100471.75;93002;1206;93277;-66
2021/08/20 07:39:27;;;;;;;78.50;67.50;;;;;;;21.88;65.53;100468.61;92960;1207;79004;-66
2021/08/20 07:41:35;;;;;;;28.10;24.10;;;;;;;21.93;65.27;100469.05;92997;1206;81065;-67
2021/08/20 07:43:43;;;;;;;18.10;14.60;;;;;;;21.90;65.10;100471.33;92942;1207;99972;-68
2021/08/20 07:45:50;;;;;;;10.70;9.60;;;;;;;21.95;65.15;100467.30;92972;1207;87599;-66
2021/08/20 07:48:01;;;;;;;14.10;7.90;;;;;;;21.97;64.91;100472.98;92946;1206;92578;-67
2021/08/20 07:50:10;;;;;;;9.40;7.10;;;;;;;21.95;64.99;100473.35;92992;1209;79159;-67
2021/08/20 07:52:21;;;;;;;8.10;7.00;;;;;;;21.95;65.23;100475.88;93019;1209;81636;-67
2021/08/20 07:54:28;;;;;;;11.10;6.40;;;;;;;22.02;65.16;100477.48;92980;1206;98422;-67
2021/08/20 07:56:39;;;;;;;8.90;6.80;;;;;;;22.11;65.28;100479.09;92948;1209;88063;-68
2021/08/20 07:58:47;;;;;;;6.40;5.80;;;;;;;22.18;65.14;100478.34;92956;1206;93675;-67
2021/08/20 08:00:54;;;;;;;8.80;6.30;;;;;;;22.28;65.02;100481.64;92954;1206;78694;-67
2021/08/20 08:03:05;;;;;;;9.00;6.40;;;;;;;22.34;64.97;100480.76;92969;1209;80791;-67
2021/08/20 08:05:16;;;;;;;7.60;6.80;;;;;;;22.29;64.99;100482.16;92952;1209;100582;-68
2021/08/20 08:07:27;;;;;;;8.40;6.50;;;;;;;22.31;64.49;100488.17;92945;1209;87586;-68
2021/08/20 08:09:36;;;;;;;8.80;5.90;;;;;;;22.34;64.26;100482.63;92926;1207;92599;-68
2021/08/20 08:11:44;;;;;;;9.80;6.00;;;;;;;22.39;64.14;100484.48;92975;1207;77262;-68
2021/08/20 08:13:51;;;;;;;21.50;7.00;;;;;;;22.44;64.20;100482.36;92954;1209;81707;-70
2021/08/20 08:15:59;;;;;;;7.90;5.70;;;;;;;22.49;64.51;100480.69;92934;1207;99513;-69
2021/08/20 08:18:07;;;;;;;7.20;5.30;;;;;;;22.80;64.69;100481.14;92954;1209;86551;-70
2021/08/20 08:20:18;;;;;;;7.20;5.30;;;;;;;23.25;64.75;100475.31;92935;1209;93911;-68
2021/08/20 08:22:26;;;;;;;5.90;5.20;;;;;;;24.34;64.69;100475.26;92936;1206;78708;-68
2021/08/20 08:24:35;;;;;;;5.90;5.00;;;;;;;25.87;63.87;100473.98;92925;1200;80764;-68
2021/08/20 08:26:42;;;;;;;6.20;4.80;;;;;;;27.43;61.58;100474.71;92924;1209;99009;-68
2021/08/20 08:28:55;;;;;;;7.10;4.60;;;;;;;28.03;59.22;100473.23;92916;1209;88115;-69
2021/08/20 08:31:02;;;;;;;5.80;4.10;;;;;;;28.45;57.80;100473.67;92916;1209;93962;-69
2021/08/20 08:33:12;;;;;;;6.50;4.50;;;;;;;28.83;56.20;100474.20;92916;1209;78942;-67
2021/08/20 08:35:28;;;;;;;6.80;4.50;;;;;;;29.24;55.11;100470.54;92987;1206;82628;-68
2021/08/20 08:37:37;;;;;;;5.10;4.00;;;;;;;29.56;53.68;100474.67;92943;1215;99114;-68
2021/08/20 08:39:45;;;;;;;5.00;4.40;;;;;;;30.15;53.09;100476.61;92882;1209;88731;-68
2021/08/20 08:41:53;;;;;;;4.40;4.00;;;;;;;30.43;51.95;100470.45;92919;1209;93920;-68
2021/08/20 08:44:05;;;;;;;5.20;3.90;;;;;;;30.77;50.97;100470.85;92953;1207;78823;-68
2021/08/20 08:46:18;;;;;;;5.30;4.10;;;;;;;30.59;50.33;100470.41;92954;1210;81603;-68
2021/08/20 08:48:26;;;;;;;8.20;4.50;;;;;;;30.00;49.88;100466.67;92936;1207;99420;-67
2021/08/20 08:50:37;;;;;;;4.90;3.90;;;;;;;29.33;49.80;100467.84;92978;1207;86150;-64
2021/08/20 08:52:45;;;;;;;4.60;3.70;;;;;;;28.97;49.56;100468.09;92954;1209;94520;-64
2021/08/20 08:54:56;;;;;;;6.80;4.20;;;;;;;28.47;50.21;100471.70;92988;1209;77926;-65
2021/08/20 08:57:08;;;;;;;5.70;3.90;;;;;;;28.20;50.32;100472.05;92940;1209;81837;-60
2021/08/20 08:59:16;;;;;;;4.60;3.80;;;;;;;27.70;49.96;100470.70;92977;1209;99386;-64
2021/08/20 09:01:36;;;;;;;5.00;3.60;;;;;;;27.36;51.00;100474.09;92998;1209;87621;-69
2021/08/20 09:03:44;;;;;;;6.30;4.10;;;;;;;27.44;51.07;100477.11;92951;1209;95412;-62
2021/08/20 09:05:52;;;;;;;5.00;4.10;;;;;;;27.46;51.28;100478.02;92962;1209;77975;-68
2021/08/20 09:08:00;;;;;;;5.40;3.70;;;;;;;27.86;51.36;100475.61;92972;1200;80307;-68
2021/08/20 09:10:22;;;;;;;5.70;4.00;;;;;;;28.73;50.79;100480.42;92972;1209;99424;-67
2021/08/20 09:12:31;;;;;;;5.40;4.00;;;;;;;29.36;49.74;100474.95;93009;1209;88081;-68
2021/08/20 09:14:41;;;;;;;6.30;3.90;;;;;;;30.01;49.07;100480.98;92927;1209;94655;-67
2021/08/20 09:16:54;;;;;;;5.10;3.70;;;;;;;30.19;47.81;100479.64;92944;1206;79186;-68
2021/08/20 09:19:15;;;;;;;7.10;3.40;;;;;;;30.54;47.76;100486.05;92976;1200;82108;-68
2021/08/20 09:21:30;;;;;;;6.80;3.80;;;;;;;30.71;46.95;100486.09;92825;1209;99606;-72
2021/08/20 09:23:39;;;;;;;5.50;3.80;;;;;;;30.67;46.39;100485.02;92992;1209;86936;-72
2021/08/20 09:25:49;;;;;;;5.50;3.90;;;;;;;30.32;46.53;100481.41;92986;1209;94562;-70
2021/08/20 09:28:21;;;;;;;5.60;4.20;;;;;;;30.48;46.77;100480.58;92949;1209;80245;-68
2021/08/20 09:30:29;;;;;;;4.60;3.50;;;;;;;30.07;46.13;100480.48;92992;1209;81772;-70
2021/08/20 09:32:43;;;;;;;4.00;3.50;;;;;;;29.41;46.54;100484.09;92976;1209;100242;-70
2021/08/20 09:34:57;;;;;;;4.50;3.60;;;;;;;29.23;46.76;100487.20;92970;1209;86594;-71
2021/08/20 09:37:20;;;;;;;5.50;3.60;;;;;;;29.21;47.25;100484.01;92963;1200;92511;-67
2021/08/20 09:39:29;;;;;;;;;;;;;;;29.19;46.99;100486.94;92993;1209;78456;-69
2021/08/20 09:41:42;;;;;;;4.50;3.80;;;;;;;28.58;47.27;100488.05;92968;1209;82276;-67
2021/08/20 09:43:55;;;;;;;;;;;;;;;28.08;47.83;100477.81;92942;1209;98441;-68
2021/08/20 09:46:11;;;;;;;4.90;3.80;;;;;;;27.72;47.96;100475.59;92998;1206;87262;-68
2021/08/20 09:48:41;;;;;;;8.00;4.40;;;;;;;27.31;48.89;100483.98;92984;1206;93694;-68
2021/08/20 09:50:52;;;;;;;4.40;4.00;;;;;;;26.78;49.08;100483.45;93015;1209;77547;-67
2021/08/20 09:53:13;;;;;;;4.00;3.50;;;;;;;26.31;49.87;100484.20;92970;1209;81526;-66
2021/08/20 09:55:41;;;;;;;4.70;3.90;;;;;;;25.96;50.74;100482.14;92962;1209;99176;-67